Condor Trader — DUIL — position and weather

sailwx.info

Track history (hours):
 
Tides and Currents Weather Stations Pressure Air Temp Water Temp Dewpoint Dewpoint Depression Visibility Wind Speed Wind Dir Waves Ship Positions

Condor Trader

Last reported at 2017-Nov-17 02:18 UTC. Time now 2017-Nov-19 21:38 UTC.
Position N 28°15' W 089°57'.

Length 149 m; draft 7.3 m.

Type: Tanker. MMSI: 548944000.

Date/timePositionNaut miles runAvg speedWind from/ knotsBaromVisibWave heightAir tempDewpointWater temp
2017-Nov-17 02:18N 28°15' W 089°57'514.5
2017-Nov-17 01:57N 28°19' W 089°54'100 2.3
2017-Nov-15 06:37N 29°56' W 090°19'0 1.0
2017-Nov-15 06:30N 29°56' W 090°19'3 6.9
2017-Nov-15 06:00N 29°58' W 090°16'8 6.8
2017-Nov-15 04:49N 29°55' W 090°08'  
2017-Nov-09 15:01N 10°18' W 075°30'0 0.0
2017-Nov-09 14:58N 10°18' W 075°30'0 0.0
2017-Nov-09 14:19N 10°18' W 075°30'0 0.0
2017-Nov-09 13:55N 10°18' W 075°30'0 0.0
2017-Nov-09 13:28N 10°18' W 075°30'0 0.0
2017-Nov-09 12:58N 10°18' W 075°30'0 0.0
2017-Nov-09 12:28N 10°18' W 075°30'0 0.0
2017-Nov-09 11:55N 10°18' W 075°30'0 0.0
2017-Nov-09 11:28N 10°18' W 075°30'0 0.0
2017-Nov-09 10:58N 10°18' W 075°30'0 0.0
2017-Nov-09 10:28N 10°18' W 075°30'0 0.0
2017-Nov-09 09:58N 10°18' W 075°30'0 0.0
2017-Nov-09 09:25N 10°18' W 075°30'0 0.0
2017-Nov-09 08:07N 10°18' W 075°30'0 0.0
2017-Nov-09 07:58N 10°18' W 075°30'0 0.0
2017-Nov-09 07:25N 10°18' W 075°30'0 0.0
2017-Nov-09 06:58N 10°18' W 075°30'0 0.0
2017-Nov-09 06:25N 10°18' W 075°30'0 0.0
2017-Nov-09 05:55N 10°18' W 075°30'0 0.0
2017-Nov-09 05:25N 10°18' W 075°30'0 0.0
2017-Nov-09 04:55N 10°18' W 075°30'0 0.0
2017-Nov-09 04:19N 10°18' W 075°30'0 0.0
2017-Nov-09 03:55N 10°18' W 075°30'0 0.0
2017-Nov-09 03:28N 10°18' W 075°30'0 0.0
2017-Nov-09 02:55N 10°18' W 075°30'0 0.0
2017-Nov-09 02:25N 10°18' W 075°30'0 0.0
2017-Nov-09 01:58N 10°18' W 075°30'0 0.0
2017-Nov-09 01:25N 10°18' W 075°30'0 0.0
2017-Nov-09 00:58N 10°18' W 075°30'0 0.0
2017-Nov-09 00:25N 10°18' W 075°30'0 0.0
2017-Nov-08 23:58N 10°18' W 075°30'0 0.0
2017-Nov-08 23:25N 10°18' W 075°30'0 0.0
2017-Nov-08 22:55N 10°18' W 075°30'0 0.0
2017-Nov-08 22:30N 10°18' W 075°30'0 0.6
2017-Nov-08 22:00N 10°19' W 075°31'2 5.0
2017-Nov-08 21:30N 10°19' W 075°33'4 8.7
2017-Nov-08 21:00N 10°19' W 075°38'3 6.3
2017-Nov-08 20:30N 10°21' W 075°40'5 9.5
2017-Nov-08 20:00N 10°24' W 075°44'813.1
2017-Nov-08 19:25N 10°32' W 075°45'6111.4
2017-Nov-08 14:05N 11°08' W 074°55'112.9
2017-Nov-08 13:58N 11°07' W 074°54'4 8.9
2017-Nov-08 13:30N 11°04' W 074°51'3 0.2
2017-Nov-07 21:26N 11°02' W 074°48'0 0.8
2017-Nov-07 21:00N 11°02' W 074°48'1 0.1
2017-Nov-07 14:09N 11°02' W 074°49'0 0.0
2017-Nov-07 14:00N 11°02' W 074°49'0 0.0
2017-Nov-07 13:30N 11°02' W 074°49'0 0.0
2017-Nov-07 13:00N 11°02' W 074°49'0 0.0
2017-Nov-07 12:30N 11°02' W 074°49'0 0.0
2017-Nov-07 12:00N 11°02' W 074°49'0 0.0
2017-Nov-07 11:24N 11°02' W 074°49'0 0.0
2017-Nov-07 11:00N 11°02' W 074°49'0 0.0
2017-Nov-07 10:30N 11°02' W 074°49'0 0.0
2017-Nov-07 10:00N 11°02' W 074°49'0 0.0
2017-Nov-07 09:30N 11°02' W 074°49'0 0.0
2017-Nov-07 08:06N 11°02' W 074°49'0 0.0
2017-Nov-07 08:00N 11°02' W 074°49'0 0.0
2017-Nov-07 07:30N 11°02' W 074°49'0 0.0
2017-Nov-07 07:00N 11°02' W 074°49'0 0.0
2017-Nov-07 06:30N 11°02' W 074°49'0 0.0
2017-Nov-07 06:00N 11°02' W 074°49'0 0.0
2017-Nov-07 05:30N 11°02' W 074°49'0 0.0
2017-Nov-07 05:00N 11°02' W 074°49'0 0.0
2017-Nov-07 04:30N 11°02' W 074°49'0 0.0
2017-Nov-07 04:00N 11°02' W 074°49'0 0.0
2017-Nov-07 03:30N 11°02' W 074°49'0 0.0
2017-Nov-07 03:00N 11°02' W 074°49'0 0.0
2017-Nov-07 02:30N 11°02' W 074°49'  
Track history (hours):
 
Tides and Currents Weather Stations Pressure Air Temp Water Temp Dewpoint Dewpoint Depression Visibility Wind Speed Wind Dir Waves Ship Positions

Condor Trader

Last reported at 2017-Nov-17 02:18 UTC. Time now 2017-Nov-19 21:38 UTC.
Position N 28°15' W 089°57'.

Length 149 m; draft 7.3 m.

Type: Tanker. MMSI: 548944000.

Date/timePositionNaut miles runAvg speedWind from/ knotsBaromVisibWave heightAir tempDewpointWater temp
2017-Nov-17 02:18N 28°15' W 089°57'514.5
2017-Nov-17 01:57N 28°19' W 089°54'100 2.3
2017-Nov-15 06:37N 29°56' W 090°19'0 1.0
2017-Nov-15 06:30N 29°56' W 090°19'3 6.9
2017-Nov-15 06:00N 29°58' W 090°16'8 6.8
2017-Nov-15 04:49N 29°55' W 090°08'  
2017-Nov-09 15:01N 10°18' W 075°30'0 0.0
2017-Nov-09 14:58N 10°18' W 075°30'0 0.0
2017-Nov-09 14:19N 10°18' W 075°30'0 0.0
2017-Nov-09 13:55N 10°18' W 075°30'0 0.0
2017-Nov-09 13:28N 10°18' W 075°30'0 0.0
2017-Nov-09 12:58N 10°18' W 075°30'0 0.0
2017-Nov-09 12:28N 10°18' W 075°30'0 0.0
2017-Nov-09 11:55N 10°18' W 075°30'0 0.0
2017-Nov-09 11:28N 10°18' W 075°30'0 0.0
2017-Nov-09 10:58N 10°18' W 075°30'0 0.0
2017-Nov-09 10:28N 10°18' W 075°30'0 0.0
2017-Nov-09 09:58N 10°18' W 075°30'0 0.0
2017-Nov-09 09:25N 10°18' W 075°30'0 0.0
2017-Nov-09 08:07N 10°18' W 075°30'0 0.0
2017-Nov-09 07:58N 10°18' W 075°30'0 0.0
2017-Nov-09 07:25N 10°18' W 075°30'0 0.0
2017-Nov-09 06:58N 10°18' W 075°30'0 0.0
2017-Nov-09 06:25N 10°18' W 075°30'0 0.0
2017-Nov-09 05:55N 10°18' W 075°30'0 0.0
2017-Nov-09 05:25N 10°18' W 075°30'0 0.0
2017-Nov-09 04:55N 10°18' W 075°30'0 0.0
2017-Nov-09 04:19N 10°18' W 075°30'0 0.0
2017-Nov-09 03:55N 10°18' W 075°30'0 0.0
2017-Nov-09 03:28N 10°18' W 075°30'0 0.0
2017-Nov-09 02:55N 10°18' W 075°30'0 0.0
2017-Nov-09 02:25N 10°18' W 075°30'0 0.0
2017-Nov-09 01:58N 10°18' W 075°30'0 0.0
2017-Nov-09 01:25N 10°18' W 075°30'0 0.0
2017-Nov-09 00:58N 10°18' W 075°30'0 0.0
2017-Nov-09 00:25N 10°18' W 075°30'0 0.0
2017-Nov-08 23:58N 10°18' W 075°30'0 0.0
2017-Nov-08 23:25N 10°18' W 075°30'0 0.0
2017-Nov-08 22:55N 10°18' W 075°30'0 0.0
2017-Nov-08 22:30N 10°18' W 075°30'0 0.6
2017-Nov-08 22:00N 10°19' W 075°31'2 5.0
2017-Nov-08 21:30N 10°19' W 075°33'4 8.7
2017-Nov-08 21:00N 10°19' W 075°38'3 6.3
2017-Nov-08 20:30N 10°21' W 075°40'5 9.5
2017-Nov-08 20:00N 10°24' W 075°44'813.1
2017-Nov-08 19:25N 10°32' W 075°45'6111.4
2017-Nov-08 14:05N 11°08' W 074°55'112.9
2017-Nov-08 13:58N 11°07' W 074°54'4 8.9
2017-Nov-08 13:30N 11°04' W 074°51'3 0.2
2017-Nov-07 21:26N 11°02' W 074°48'0 0.8
2017-Nov-07 21:00N 11°02' W 074°48'1 0.1
2017-Nov-07 14:09N 11°02' W 074°49'0 0.0
2017-Nov-07 14:00N 11°02' W 074°49'0 0.0
2017-Nov-07 13:30N 11°02' W 074°49'0 0.0
2017-Nov-07 13:00N 11°02' W 074°49'0 0.0
2017-Nov-07 12:30N 11°02' W 074°49'0 0.0
2017-Nov-07 12:00N 11°02' W 074°49'0 0.0
2017-Nov-07 11:24N 11°02' W 074°49'0 0.0
2017-Nov-07 11:00N 11°02' W 074°49'0 0.0
2017-Nov-07 10:30N 11°02' W 074°49'0 0.0
2017-Nov-07 10:00N 11°02' W 074°49'0 0.0
2017-Nov-07 09:30N 11°02' W 074°49'0 0.0
2017-Nov-07 08:06N 11°02' W 074°49'0 0.0
2017-Nov-07 08:00N 11°02' W 074°49'0 0.0
2017-Nov-07 07:30N 11°02' W 074°49'0 0.0
2017-Nov-07 07:00N 11°02' W 074°49'0 0.0
2017-Nov-07 06:30N 11°02' W 074°49'0 0.0
2017-Nov-07 06:00N 11°02' W 074°49'0 0.0
2017-Nov-07 05:30N 11°02' W 074°49'0 0.0
2017-Nov-07 05:00N 11°02' W 074°49'0 0.0
2017-Nov-07 04:30N 11°02' W 074°49'0 0.0
2017-Nov-07 04:00N 11°02' W 074°49'0 0.0
2017-Nov-07 03:30N 11°02' W 074°49'0 0.0
2017-Nov-07 03:00N 11°02' W 074°49'0 0.0
2017-Nov-07 02:30N 11°02' W 074°49'  

Dump ship's entire track history